Time;durP1;ratioP1;P1;durP2;ratioP2;P2;SDS_P1;SDS_P2;PMS_P1;PMS_P2;Temp;Humidity;BMP_temperature;BMP_pressure;BME280_temperature;BME280_humidity;BME280_pressure;Samples;Min_cycle;Max_cycle;Signal;HPM_P1;HPM_P2
2022/07/14 00:01:24;;;;;;;19.23;2.92;;;;;;;17.23;100.00;102063.34;4995574;28;20061;-52
2022/07/14 00:03:49;;;;;;;18.85;2.80;;;;;;;17.18;100.00;102062.19;4998381;28;20022;-52
2022/07/14 00:06:15;;;;;;;16.85;2.85;;;;;;;17.20;100.00;102066.38;4979243;28;20057;-53
2022/07/14 00:08:43;;;;;;;18.17;3.30;;;;;;;17.13;100.00;102076.19;4997562;28;20030;-53
2022/07/14 00:11:09;;;;;;;14.82;2.50;;;;;;;17.14;100.00;102065.22;4996555;28;20030;-51
2022/07/14 00:13:34;;;;;;;12.90;2.75;;;;;;;17.05;100.00;102062.72;4997794;28;20374;-52
2022/07/14 00:16:00;;;;;;;17.75;3.40;;;;;;;17.09;100.00;102064.91;4992656;28;20504;-52
2022/07/14 00:18:25;;;;;;;17.73;2.97;;;;;;;17.04;100.00;102055.63;5014874;28;20030;-53
2022/07/14 00:20:50;;;;;;;13.60;3.17;;;;;;;17.04;100.00;102056.50;4978999;28;20065;-52
2022/07/14 00:23:16;;;;;;;17.75;3.30;;;;;;;16.99;100.00;102064.28;4997408;28;20033;-53
2022/07/14 00:25:42;;;;;;;12.30;3.50;;;;;;;17.01;100.00;102056.84;4997093;28;20090;-53
2022/07/14 00:28:07;;;;;;;19.10;3.67;;;;;;;17.01;100.00;102046.03;4996225;28;20073;-53
2022/07/14 00:30:33;;;;;;;17.00;3.30;;;;;;;16.99;100.00;102039.97;4979876;28;20473;-53
2022/07/14 00:32:58;;;;;;;14.80;2.90;;;;;;;17.02;100.00;102050.41;4998089;28;20083;-52
2022/07/14 00:35:24;;;;;;;12.95;2.65;;;;;;;17.07;100.00;102047.19;4997315;28;20022;-54
2022/07/14 00:37:49;;;;;;;19.70;3.22;;;;;;;17.01;100.00;102047.91;4996659;28;20397;-53
2022/07/14 00:40:15;;;;;;;22.48;3.38;;;;;;;16.93;100.00;102049.59;4996901;28;20061;-53
2022/07/14 00:42:45;;;;;;;17.70;3.20;;;;;;;16.90;100.00;102057.19;4983210;28;20155;-54
2022/07/14 00:45:13;;;;;;;17.57;3.23;;;;;;;16.94;100.00;102040.50;4996061;28;20030;-52
2022/07/14 00:47:39;;;;;;;15.75;3.20;;;;;;;16.80;100.00;102030.38;4997250;28;20359;-53
2022/07/14 00:50:05;;;;;;;13.20;3.22;;;;;;;16.72;100.00;102044.75;4996525;28;20110;-53
2022/07/14 00:52:31;;;;;;;13.90;3.50;;;;;;;16.67;100.00;102047.13;4995514;28;20511;-52
2022/07/14 00:54:58;;;;;;;15.50;3.67;;;;;;;16.66;100.00;102040.03;4990504;28;20265;-53
2022/07/14 00:57:24;;;;;;;16.40;3.60;;;;;;;16.68;100.00;102039.84;4999672;28;20390;-54
2022/07/14 00:59:50;;;;;;;13.95;3.47;;;;;;;16.72;100.00;102046.59;5016344;28;20021;-54
2022/07/14 01:02:17;;;;;;;15.48;3.55;;;;;;;16.68;100.00;102046.09;5015745;28;20508;-53
2022/07/14 01:04:45;;;;;;;15.77;3.42;;;;;;;16.72;100.00;102052.00;5016061;28;20048;-53
2022/07/14 01:07:10;;;;;;;19.33;3.85;;;;;;;16.73;100.00;102050.97;5015976;28;20021;-53
2022/07/14 01:09:36;;;;;;;14.70;3.63;;;;;;;16.75;100.00;102054.34;5016276;28;20037;-53
2022/07/14 01:12:02;;;;;;;19.02;3.35;;;;;;;16.77;100.00;102060.44;5016782;28;20032;-52
2022/07/14 01:14:27;;;;;;;18.17;3.38;;;;;;;16.75;100.00;102066.00;5016609;28;20048;-53
2022/07/14 01:16:57;;;;;;;14.30;3.45;;;;;;;16.78;100.00;102064.78;5002232;28;20351;-54
2022/07/14 01:19:24;;;;;;;17.50;3.85;;;;;;;16.76;100.00;102064.13;5005034;28;20054;-53
2022/07/14 01:21:54;;;;;;;19.30;3.97;;;;;;;16.76;100.00;102058.72;5015432;28;20072;-53
2022/07/14 01:24:19;;;;;;;17.35;3.40;;;;;;;16.80;100.00;102065.44;5016067;28;20516;-54
2022/07/14 01:26:44;;;;;;;15.38;3.58;;;;;;;16.79;100.00;102077.28;5003609;28;20032;-54
2022/07/14 01:29:10;;;;;;;18.40;4.05;;;;;;;16.74;100.00;102076.94;5015106;28;20069;-53
2022/07/14 01:31:35;;;;;;;20.33;4.10;;;;;;;16.67;100.00;102084.88;5016019;28;20032;-54
2022/07/14 01:34:00;;;;;;;23.50;3.90;;;;;;;16.64;100.00;102087.91;4984299;28;20501;-53
2022/07/14 01:36:26;;;;;;;13.52;3.60;;;;;;;16.58;100.00;102089.44;5002113;28;20590;-53
2022/07/14 01:38:52;;;;;;;17.52;3.95;;;;;;;16.47;100.00;102087.09;5008379;28;20029;-53
2022/07/14 01:41:18;;;;;;;21.05;3.67;;;;;;;16.51;100.00;102088.41;5009606;28;20270;-53
2022/07/14 01:43:43;;;;;;;19.45;4.40;;;;;;;16.45;100.00;102083.72;5009282;28;20495;-54
2022/07/14 01:46:08;;;;;;;21.70;4.00;;;;;;;16.45;100.00;102080.19;5015923;28;20029;-54
2022/07/14 01:48:34;;;;;;;11.45;3.22;;;;;;;16.49;100.00;102079.66;5015876;28;20057;-53
2022/07/14 01:50:59;;;;;;;14.32;3.28;;;;;;;16.53;100.00;102077.47;4985403;28;20447;-53
2022/07/14 01:53:24;;;;;;;19.67;3.88;;;;;;;16.52;100.00;102081.19;5007238;28;20037;-53
2022/07/14 01:55:50;;;;;;;15.02;3.95;;;;;;;16.47;100.00;102076.31;5010187;28;20025;-53
2022/07/14 01:58:15;;;;;;;20.17;3.17;;;;;;;16.47;100.00;102081.69;5010451;28;20045;-53
2022/07/14 02:00:40;;;;;;;18.48;3.45;;;;;;;16.47;100.00;102075.47;4998085;28;20060;-50
2022/07/14 02:03:06;;;;;;;19.83;3.75;;;;;;;16.47;100.00;102070.91;4999586;28;20467;-51
2022/07/14 02:05:31;;;;;;;15.80;3.58;;;;;;;16.45;100.00;102064.03;5006957;28;20353;-51
2022/07/14 02:07:56;;;;;;;19.02;3.78;;;;;;;16.43;100.00;102066.88;5015205;28;20022;-50
2022/07/14 02:13:06;;;;;;;24.02;4.20;;;;;;;16.34;100.00;102066.03;5005008;28;20654;-49
2022/07/14 02:15:31;;;;;;;16.98;3.80;;;;;;;16.35;100.00;102058.78;5008915;28;20025;-51
2022/07/14 02:17:56;;;;;;;17.77;4.45;;;;;;;16.29;100.00;102063.00;5001627;28;20203;-51
2022/07/14 02:20:22;;;;;;;20.02;4.40;;;;;;;16.21;100.00;102061.16;5006167;28;20048;-51
2022/07/14 02:22:47;;;;;;;15.60;3.72;;;;;;;16.19;100.00;102059.63;5019640;28;20103;-50
2022/07/14 02:25:12;;;;;;;16.90;3.80;;;;;;;16.15;100.00;102058.28;5000307;28;20041;-50
2022/07/14 02:27:38;;;;;;;21.77;4.15;;;;;;;16.14;100.00;102059.28;5019028;28;20032;-52
2022/07/14 02:30:03;;;;;;;15.27;3.85;;;;;;;16.11;100.00;102063.19;5019017;28;20037;-47
2022/07/14 02:32:31;;;;;;;18.67;3.95;;;;;;;16.10;100.00;102061.47;5020202;28;20196;-49
2022/07/14 02:34:57;;;;;;;14.75;3.78;;;;;;;15.99;100.00;102062.66;5002802;28;20049;-49
2022/07/14 02:37:22;;;;;;;17.63;4.10;;;;;;;15.93;100.00;102076.78;4996435;28;20018;-49
2022/07/14 02:39:48;;;;;;;20.15;3.95;;;;;;;15.90;100.00;102066.34;5003354;28;20029;-51
2022/07/14 02:42:13;;;;;;;21.33;4.15;;;;;;;15.85;100.00;102066.00;5001117;28;20342;-51
2022/07/14 02:44:39;;;;;;;25.88;4.28;;;;;;;15.78;100.00;102064.97;5010647;28;20022;-51
2022/07/14 02:47:04;;;;;;;20.42;4.10;;;;;;;15.76;100.00;102070.53;4999249;28;20027;-49
2022/07/14 02:49:29;;;;;;;22.65;4.65;;;;;;;15.73;100.00;102062.75;5006546;28;20470;-50
2022/07/14 02:51:55;;;;;;;22.88;4.45;;;;;;;15.67;100.00;102056.19;5018339;28;20033;-48
2022/07/14 02:54:20;;;;;;;18.67;4.70;;;;;;;15.60;100.00;102055.16;5003000;28;20322;-51
2022/07/14 02:56:45;;;;;;;14.77;4.35;;;;;;;15.55;100.00;102052.13;5019290;28;20033;-51
2022/07/14 02:59:11;;;;;;;17.73;4.00;;;;;;;15.58;100.00;102048.22;5018014;28;20211;-49
2022/07/14 03:01:36;;;;;;;21.92;4.20;;;;;;;15.57;100.00;102049.25;5009558;28;20397;-51
2022/07/14 03:04:02;;;;;;;20.52;4.40;;;;;;;15.52;100.00;102046.22;5010480;28;20307;-50
2022/07/14 03:06:27;;;;;;;19.73;4.30;;;;;;;15.47;100.00;102046.69;4999237;28;20029;-51
2022/07/14 03:08:52;;;;;;;18.02;4.63;;;;;;;15.44;100.00;102047.03;4999073;28;20401;-49
2022/07/14 03:11:17;;;;;;;24.33;4.90;;;;;;;15.43;100.00;102038.13;5012987;28;20026;-50
2022/07/14 03:13:43;;;;;;;17.83;4.70;;;;;;;15.36;100.00;102031.72;5006092;28;20041;-52
2022/07/14 03:16:09;;;;;;;22.33;4.75;;;;;;;15.34;100.00;102024.78;5014080;28;20026;-51
2022/07/14 03:18:36;;;;;;;26.75;4.93;;;;;;;15.25;100.00;102021.22;4994609;28;20152;-51
2022/07/14 03:21:05;;;;;;;18.95;4.82;;;;;;;15.24;100.00;102016.84;5004653;28;20516;-52
2022/07/14 03:23:30;;;;;;;19.60;4.70;;;;;;;15.23;100.00;102018.69;5015643;28;20021;-51
2022/07/14 03:25:55;;;;;;;20.08;4.80;;;;;;;15.18;100.00;102015.66;5000714;28;20029;-52
2022/07/14 03:28:21;;;;;;;17.98;4.93;;;;;;;15.20;100.00;102023.56;5017898;28;20439;-50
2022/07/14 03:30:46;;;;;;;16.83;4.75;;;;;;;15.16;100.00;102022.22;5018405;28;20291;-48
2022/07/14 03:33:11;;;;;;;20.30;4.72;;;;;;;15.10;100.00;102012.94;5017451;28;20092;-49
2022/07/14 03:35:38;;;;;;;17.75;5.00;;;;;;;15.10;100.00;102012.94;5012241;28;20017;-50
2022/07/14 03:38:04;;;;;;;26.35;5.13;;;;;;;15.08;100.00;102015.78;5006011;28;20071;-47
2022/07/14 03:40:29;;;;;;;16.30;4.70;;;;;;;15.04;100.00;102022.50;4987023;28;20392;-50
2022/07/14 03:42:54;;;;;;;20.77;4.78;;;;;;;14.99;100.00;102026.69;4998621;28;20025;-50
2022/07/14 03:45:20;;;;;;;27.67;4.88;;;;;;;14.95;100.00;102034.22;5011535;28;20419;-50
2022/07/14 03:47:45;;;;;;;15.90;4.53;;;;;;;14.96;100.00;102029.69;5002980;28;20035;-49
2022/07/14 03:50:10;;;;;;;22.13;5.35;;;;;;;14.91;100.00;102028.31;4998118;28;20072;-51
2022/07/14 03:52:36;;;;;;;20.58;5.28;;;;;;;14.95;100.00;102028.00;5017187;28;20041;-50
2022/07/14 03:55:01;;;;;;;22.05;5.13;;;;;;;14.99;100.00;102030.22;5011893;28;20030;-49
2022/07/14 03:57:27;;;;;;;19.70;4.72;;;;;;;14.97;100.00;102034.06;5014478;28;20481;-51
2022/07/14 03:59:52;;;;;;;15.45;4.97;;;;;;;14.94;100.00;102029.03;5018069;28;20375;-50
2022/07/14 04:02:17;;;;;;;27.33;5.32;;;;;;;14.94;100.00;102031.72;5014326;28;20026;-49
2022/07/14 04:04:43;;;;;;;25.15;4.97;;;;;;;14.96;100.00;102033.22;5003364;28;20048;-47
2022/07/14 04:07:08;;;;;;;29.55;5.57;;;;;;;14.95;100.00;102031.53;5016590;28;20056;-49
2022/07/14 04:09:34;;;;;;;20.63;4.88;;;;;;;15.00;100.00;102033.75;5015737;28;20048;-50
2022/07/14 04:11:59;;;;;;;23.27;5.13;;;;;;;15.00;100.00;102031.06;5002314;28;20104;-50
2022/07/14 04:14:25;;;;;;;21.73;4.80;;;;;;;14.99;100.00;102030.22;5008838;28;20659;-49
2022/07/14 04:16:51;;;;;;;20.90;5.57;;;;;;;14.99;100.00;102022.16;4997497;28;20049;-49
2022/07/14 04:19:16;;;;;;;17.65;4.70;;;;;;;15.00;100.00;102021.13;5002722;28;20033;-48
2022/07/14 04:21:42;;;;;;;26.23;5.60;;;;;;;15.04;100.00;102014.44;5005899;28;20072;-46
2022/07/14 04:24:07;;;;;;;16.13;4.93;;;;;;;15.01;100.00;102019.28;4996936;28;20097;-51
2022/07/14 04:26:33;;;;;;;20.80;4.97;;;;;;;15.02;100.00;102024.53;4997316;28;20499;-46
2022/07/14 04:28:58;;;;;;;21.70;4.80;;;;;;;15.06;100.00;102025.03;4995434;28;20145;-48
2022/07/14 04:31:23;;;;;;;17.15;4.85;;;;;;;15.09;100.00;102019.34;4994339;28;20146;-50
2022/07/14 04:33:49;;;;;;;20.63;5.45;;;;;;;15.11;100.00;102020.84;4990429;28;20447;-50
2022/07/14 04:36:14;;;;;;;19.00;5.05;;;;;;;15.15;100.00;102020.53;4992913;28;20030;-50
2022/07/14 04:38:39;;;;;;;25.88;5.55;;;;;;;15.19;100.00;102029.94;4996819;28;20061;-47
2022/07/14 04:41:05;;;;;;;15.68;4.65;;;;;;;15.23;100.00;102024.09;4987634;28;20022;-49
2022/07/14 04:43:30;;;;;;;20.67;4.55;;;;;;;15.24;100.00;102028.47;4996828;28;20040;-50
2022/07/14 04:45:56;;;;;;;18.73;4.90;;;;;;;15.25;100.00;102022.06;4994433;28;20030;-49
2022/07/14 04:48:21;;;;;;;17.85;4.25;;;;;;;15.27;100.00;102025.47;4998506;28;20025;-49
2022/07/14 04:53:30;;;;;;;18.83;4.65;;;;;;;15.27;100.00;102024.59;4996791;28;20076;-49
2022/07/14 04:55:56;;;;;;;27.33;4.97;;;;;;;15.31;100.00;102023.28;4994513;28;20678;-50
2022/07/14 04:58:25;;;;;;;27.33;4.80;;;;;;;15.31;100.00;102031.34;4994902;28;20607;-50
2022/07/14 05:00:51;;;;;;;22.67;5.05;;;;;;;15.32;100.00;102038.41;4992230;28;20092;-49
2022/07/14 05:03:16;;;;;;;20.85;4.78;;;;;;;15.39;100.00;102043.97;4993352;28;20428;-49
2022/07/14 05:05:42;;;;;;;19.55;4.47;;;;;;;15.43;100.00;102042.66;4987904;28;20034;-49
2022/07/14 05:08:07;;;;;;;20.27;4.45;;;;;;;15.41;100.00;102042.81;4990868;28;20428;-48
2022/07/14 05:10:33;;;;;;;21.92;5.00;;;;;;;15.47;100.00;102035.94;4999990;28;20025;-50
2022/07/14 05:12:58;;;;;;;20.02;4.80;;;;;;;15.48;100.00;102034.94;4987962;28;20038;-45
2022/07/14 05:15:23;;;;;;;23.58;5.07;;;;;;;15.45;100.00;102033.41;4986134;28;20049;-50
2022/07/14 05:17:48;;;;;;;19.95;5.30;;;;;;;15.45;100.00;102044.16;4991103;28;20515;-49
2022/07/14 05:20:14;;;;;;;22.48;4.80;;;;;;;15.43;100.00;102043.50;5009579;28;20116;-50
2022/07/14 05:22:41;;;;;;;19.20;4.85;;;;;;;15.47;100.00;102049.41;4989591;28;20096;-48
2022/07/14 05:25:08;;;;;;;21.83;5.18;;;;;;;15.57;100.00;102043.88;5006121;28;20457;-50
2022/07/14 05:27:35;;;;;;;19.60;5.30;;;;;;;15.65;100.00;102047.44;5011255;28;20569;-47
2022/07/14 05:30:03;;;;;;;23.17;5.38;;;;;;;15.74;100.00;102040.19;5005976;28;20391;-50
2022/07/14 05:32:28;;;;;;;26.50;5.45;;;;;;;15.81;100.00;102051.19;5011876;28;20033;-51
2022/07/14 05:34:54;;;;;;;22.33;5.05;;;;;;;15.83;100.00;102046.47;5013217;28;20353;-50
2022/07/14 05:37:19;;;;;;;28.95;5.53;;;;;;;15.90;100.00;102050.16;5002896;28;20571;-50
2022/07/14 05:39:44;;;;;;;25.40;4.70;;;;;;;15.94;100.00;102053.41;4995638;28;20045;-50
2022/07/14 05:42:10;;;;;;;27.50;5.10;;;;;;;15.99;100.00;102053.75;4997253;28;20358;-50
2022/07/14 05:44:35;;;;;;;23.83;4.97;;;;;;;16.01;100.00;102057.94;5007521;28;20026;-47
2022/07/14 05:47:01;;;;;;;25.75;5.40;;;;;;;15.98;100.00;102050.19;4978804;28;20283;-50
2022/07/14 05:49:26;;;;;;;22.73;5.10;;;;;;;16.08;100.00;102050.03;4996005;28;20072;-47
2022/07/14 05:51:51;;;;;;;23.13;4.88;;;;;;;16.06;100.00;102037.75;4995183;28;20026;-46
2022/07/14 05:54:17;;;;;;;29.95;5.47;;;;;;;16.06;100.00;102043.97;4987355;28;20057;-49
2022/07/14 05:56:42;;;;;;;30.88;5.07;;;;;;;16.06;100.00;102043.13;4995948;28;20022;-47
2022/07/14 05:59:07;;;;;;;22.10;5.30;;;;;;;16.14;100.00;102048.50;4996329;28;20037;-48
2022/07/14 06:01:33;;;;;;;24.45;5.45;;;;;;;16.16;100.00;102049.22;4987013;28;20026;-50
2022/07/14 06:03:59;;;;;;;22.05;5.53;;;;;;;16.15;100.00;102042.13;4996672;28;20064;-47
2022/07/14 06:06:24;;;;;;;25.67;5.63;;;;;;;16.26;100.00;102043.63;4997348;28;20034;-50
2022/07/14 06:08:50;;;;;;;21.38;5.63;;;;;;;16.32;100.00;102042.94;4995826;28;20025;-51
2022/07/14 06:11:15;;;;;;;20.65;5.32;;;;;;;16.44;100.00;102044.28;4994516;28;20022;-50
2022/07/14 06:13:41;;;;;;;26.17;5.28;;;;;;;16.57;100.00;102041.06;4995710;28;20113;-49
2022/07/14 06:16:10;;;;;;;26.83;6.03;;;;;;;16.67;100.00;102033.63;4996238;28;20542;-46
2022/07/14 06:18:35;;;;;;;22.10;6.03;;;;;;;16.80;100.00;102038.47;5002057;28;20334;-49
2022/07/14 06:21:01;;;;;;;23.52;5.28;;;;;;;16.91;100.00;102032.75;4995071;28;20105;-50
2022/07/14 06:23:26;;;;;;;25.17;6.18;;;;;;;16.99;100.00;102029.19;4977106;28;20301;-50
2022/07/14 06:25:52;;;;;;;22.45;5.90;;;;;;;17.10;100.00;102039.59;4994837;28;20029;-48
2022/07/14 06:28:17;;;;;;;27.90;6.22;;;;;;;17.21;100.00;102037.50;4994966;28;20056;-51
2022/07/14 06:30:43;;;;;;;20.48;5.18;;;;;;;17.27;100.00;102043.06;5000193;28;20088;-50
2022/07/14 06:33:08;;;;;;;27.38;5.85;;;;;;;17.32;100.00;102047.94;5006100;28;20488;-49
2022/07/14 06:35:37;;;;;;;25.95;5.93;;;;;;;17.37;100.00;102042.00;4974510;28;20061;-52
2022/07/14 06:38:03;;;;;;;24.38;5.00;;;;;;;17.50;100.00;102051.22;4999604;28;20623;-48
2022/07/14 06:40:28;;;;;;;31.48;5.78;;;;;;;17.61;100.00;102060.75;5006868;28;20242;-52
2022/07/14 06:42:53;;;;;;;20.17;4.35;;;;;;;17.74;99.76;102051.25;4996176;28;20037;-51
2022/07/14 06:45:19;;;;;;;26.15;4.78;;;;;;;17.79;99.61;102057.78;4977407;28;20479;-51
2022/07/14 06:47:44;;;;;;;19.65;4.30;;;;;;;17.94;99.20;102070.53;4995340;28;20044;-51
2022/07/14 06:50:10;;;;;;;20.85;4.50;;;;;;;17.92;97.56;102059.91;4994994;28;20393;-48
2022/07/14 06:52:35;;;;;;;19.80;3.90;;;;;;;17.92;97.35;102064.47;4999931;28;20022;-50
2022/07/14 06:55:02;;;;;;;18.38;4.05;;;;;;;17.86;96.88;102050.66;4999084;28;20467;-49
2022/07/14 06:57:27;;;;;;;17.85;3.85;;;;;;;17.92;98.29;102042.88;4981569;28;20465;-50
2022/07/14 06:59:54;;;;;;;25.75;4.30;;;;;;;18.02;96.52;102038.06;4999482;28;20032;-51
2022/07/14 07:02:19;;;;;;;18.27;4.32;;;;;;;18.23;98.74;102040.09;5013275;28;20033;-50
2022/07/14 07:04:47;;;;;;;26.90;5.45;;;;;;;18.27;96.69;102038.69;5016854;28;20801;-51
2022/07/14 07:07:12;;;;;;;19.73;4.18;;;;;;;18.33;96.60;102035.25;5007334;28;20378;-51
2022/07/14 07:09:37;;;;;;;19.23;4.40;;;;;;;18.38;94.67;102040.97;4992421;28;20507;-51
2022/07/14 07:12:04;;;;;;;22.73;4.97;;;;;;;18.39;95.81;102031.81;5014480;28;20028;-51
2022/07/14 07:14:30;;;;;;;32.22;4.03;;;;;;;18.59;96.67;102029.41;5004739;28;20693;-49
2022/07/14 07:16:55;;;;;;;21.95;4.50;;;;;;;18.69;94.67;102037.25;4996474;28;20030;-51
2022/07/14 07:19:20;;;;;;;25.45;4.15;;;;;;;18.74;91.10;102042.97;4994910;28;20073;-50
2022/07/14 07:21:46;;;;;;;19.20;3.88;;;;;;;18.73;91.49;102046.69;4995970;28;20053;-49
2022/07/14 07:24:12;;;;;;;20.55;3.97;;;;;;;18.85;92.71;102041.69;4998594;28;20018;-51
2022/07/14 07:26:39;;;;;;;20.40;3.85;;;;;;;18.95;92.39;102041.41;4985693;28;20117;-51
2022/07/14 07:29:04;;;;;;;24.02;4.65;;;;;;;19.04;92.04;102029.44;4998132;28;20523;-49
2022/07/14 07:31:31;;;;;;;23.30;5.05;;;;;;;19.09;91.10;102021.56;4999002;28;20030;-48
2022/07/14 07:33:57;;;;;;;21.58;4.15;;;;;;;19.30;91.33;102017.28;4997715;28;20484;-51
2022/07/14 07:36:22;;;;;;;17.95;3.67;;;;;;;19.37;88.97;102019.00;4996463;28;20087;-51
2022/07/14 07:38:48;;;;;;;13.85;3.65;;;;;;;19.42;85.79;102021.16;4997649;28;20030;-51
2022/07/14 07:41:13;;;;;;;18.23;3.65;;;;;;;19.49;85.52;102021.22;4979544;28;20021;-51
2022/07/14 07:43:39;;;;;;;15.68;3.72;;;;;;;19.51;85.38;102019.16;4998286;28;20133;-51
2022/07/14 07:46:05;;;;;;;13.60;3.78;;;;;;;19.79;89.50;102034.69;4998303;28;20029;-50
2022/07/14 07:48:31;;;;;;;19.80;4.00;;;;;;;20.05;86.47;102032.25;4997743;28;20017;-49
2022/07/14 07:50:56;;;;;;;19.80;4.50;;;;;;;20.22;85.04;102027.38;4996531;28;20121;-51
2022/07/14 07:53:22;;;;;;;15.85;4.35;;;;;;;20.23;82.19;102018.22;4997706;28;20038;-52
2022/07/14 07:55:47;;;;;;;20.05;4.40;;;;;;;20.19;84.02;102019.63;5010310;28;21649;-50
2022/07/14 07:58:12;;;;;;;19.25;4.20;;;;;;;20.34;84.59;102018.72;5005041;28;20030;-51
2022/07/14 08:00:38;;;;;;;17.55;4.00;;;;;;;20.15;81.46;102017.53;4999757;28;20040;-49
2022/07/14 08:03:04;;;;;;;14.35;4.38;;;;;;;20.11;80.59;102006.19;5015581;28;20379;-50
2022/07/14 08:05:30;;;;;;;18.00;4.22;;;;;;;20.18;79.36;102008.97;5019151;28;20109;-49
2022/07/14 08:07:55;;;;;;;13.82;3.72;;;;;;;20.16;77.87;102008.31;5000829;28;20055;-52
2022/07/14 08:10:21;;;;;;;15.63;3.20;;;;;;;20.22;78.27;102007.56;4997935;28;20476;-50
2022/07/14 08:12:47;;;;;;;13.98;3.30;;;;;;;20.40;79.87;102005.19;4996129;28;20200;-47
2022/07/14 08:15:13;;;;;;;14.25;3.35;;;;;;;20.33;75.85;101998.84;5008349;28;20044;-51
2022/07/14 08:17:39;;;;;;;15.32;3.88;;;;;;;20.38;81.19;101988.25;5012844;28;20455;-51
2022/07/14 08:20:07;;;;;;;14.32;3.47;;;;;;;20.57;80.03;101994.00;5005479;28;20041;-49
2022/07/14 08:22:33;;;;;;;14.88;3.90;;;;;;;20.64;78.63;101998.47;4975512;28;20113;-51
2022/07/14 08:24:58;;;;;;;18.92;3.42;;;;;;;20.71;78.63;101986.81;5008005;28;20563;-51
2022/07/14 08:27:24;;;;;;;30.73;5.32;;;;;;;20.85;77.35;101989.38;5014430;28;20091;-51
2022/07/14 08:29:50;;;;;;;17.90;3.17;;;;;;;20.83;75.80;101975.19;5015074;28;20103;-50
2022/07/14 08:32:17;;;;;;;13.07;3.17;;;;;;;21.07;78.09;101975.69;5013287;28;20026;-54
2022/07/14 08:34:43;;;;;;;14.23;3.10;;;;;;;21.17;76.80;101978.88;5013468;28;20022;-50
2022/07/14 08:37:08;;;;;;;16.42;4.10;;;;;;;21.42;77.17;101976.44;4994674;28;20430;-51
2022/07/14 08:39:34;;;;;;;17.15;3.60;;;;;;;21.59;78.16;101979.63;5017224;28;20041;-50
2022/07/14 08:42:00;;;;;;;12.95;2.78;;;;;;;21.64;70.81;101984.47;4993418;28;20440;-52
2022/07/14 08:44:26;;;;;;;15.57;3.42;;;;;;;21.68;72.16;101984.88;4993723;28;20021;-51
2022/07/14 08:46:52;;;;;;;12.43;3.08;;;;;;;21.59;73.09;101986.97;5001876;28;20036;-51
2022/07/14 08:49:18;;;;;;;12.93;3.20;;;;;;;21.66;72.52;101976.09;4997369;28;20041;-51
2022/07/14 08:51:44;;;;;;;11.45;2.90;;;;;;;21.95;71.11;101977.56;4997764;28;20135;-53
2022/07/14 08:54:10;;;;;;;10.43;2.20;;;;;;;22.13;69.24;101976.91;4998265;28;20137;-52
2022/07/14 08:56:36;;;;;;;12.35;2.40;;;;;;;22.29;66.04;101970.25;4998431;28;20385;-50
2022/07/14 08:59:02;;;;;;;11.70;2.33;;;;;;;22.52;66.66;101967.91;4998931;28;20036;-52
2022/07/14 09:01:28;;;;;;;22.55;3.08;;;;;;;22.54;61.89;101970.41;5001702;28;20017;-49
2022/07/14 09:03:54;;;;;;;11.23;2.95;;;;;;;22.46;63.26;101976.91;5018960;28;20029;-51
2022/07/14 09:06:42;;;;;;;12.38;2.83;;;;;;;22.33;62.94;101966.03;5014038;28;20065;-51
2022/07/14 09:09:08;;;;;;;11.02;2.67;;;;;;;22.34;61.05;101967.72;4989927;28;20602;-52
2022/07/14 09:11:34;;;;;;;11.70;2.80;;;;;;;22.44;63.28;101978.19;4996643;28;20026;-50
2022/07/14 09:14:09;;;;;;;11.50;2.80;;;;;;;22.59;59.23;101972.47;4997499;28;20032;-50
2022/07/14 09:16:35;;;;;;;11.18;2.00;;;;;;;22.61;55.63;101963.03;4996214;28;20095;-51
2022/07/14 09:19:13;;;;;;;10.60;1.88;;;;;;;22.80;56.58;101971.38;4998126;28;20025;-48
2022/07/14 09:21:42;;;;;;;9.15;2.70;;;;;;;22.96;55.25;101970.84;4995119;28;20026;-51
2022/07/14 09:24:09;;;;;;;7.53;1.50;;;;;;;23.11;54.91;101972.53;4995817;28;20041;-51
2022/07/14 09:26:52;;;;;;;15.38;2.75;;;;;;;23.26;55.09;101963.00;4978042;28;20076;-50
2022/07/14 09:29:18;;;;;;;8.88;1.75;;;;;;;23.06;51.97;101965.81;4995854;28;20042;-51
2022/07/14 09:31:43;;;;;;;10.95;2.20;;;;;;;22.78;51.71;101968.84;4996193;28;20563;-50
2022/07/14 09:34:09;;;;;;;9.23;1.88;;;;;;;22.70;55.33;101961.75;4995920;28;20564;-51
2022/07/14 09:36:36;;;;;;;13.95;2.47;;;;;;;22.47;55.24;101958.69;4994705;28;20427;-50
2022/07/14 09:39:09;;;;;;;11.32;2.30;;;;;;;22.29;56.64;101946.56;4995615;28;20053;-51
2022/07/14 09:41:58;;;;;;;11.70;2.00;;;;;;;22.74;58.06;101951.25;4995382;28;20087;-51
2022/07/14 09:44:23;;;;;;;7.55;1.70;;;;;;;23.14;57.11;101961.19;4996482;28;20342;-50
2022/07/14 09:46:51;;;;;;;10.48;2.05;;;;;;;23.32;51.67;101972.19;5007120;28;20025;-50
2022/07/14 09:49:18;;;;;;;9.52;1.52;;;;;;;23.23;51.53;101957.13;4995896;28;20022;-51
2022/07/14 09:52:04;;;;;;;10.43;1.60;;;;;;;23.30;51.64;101957.94;4995747;28;20391;-51
2022/07/14 09:54:49;;;;;;;9.50;1.75;;;;;;;23.56;53.32;101956.94;4985866;28;20105;-52
2022/07/14 09:57:14;;;;;;;7.15;1.77;;;;;;;23.53;48.84;101964.72;4990059;28;20106;-52
2022/07/14 09:59:48;;;;;;;5.77;1.40;;;;;;;23.62;48.94;101971.56;4996070;28;20033;-52
2022/07/14 10:02:34;;;;;;;6.53;1.27;;;;;;;23.69;49.33;101974.25;5003706;28;20071;-52
2022/07/14 10:05:01;;;;;;;8.77;1.52;;;;;;;23.75;49.17;101968.75;4993109;28;20586;-51
2022/07/14 10:07:33;;;;;;;14.85;1.55;;;;;;;23.65;48.59;101974.69;5012101;28;20540;-50
2022/07/14 10:10:11;;;;;;;7.50;1.45;;;;;;;23.65;49.69;101973.84;5011760;28;20388;-52
2022/07/14 10:12:38;;;;;;;9.38;1.83;;;;;;;23.87;47.41;101977.06;5006925;28;20021;-50
2022/07/14 10:15:12;;;;;;;6.88;1.63;;;;;;;24.01;45.47;101977.78;5014929;28;20100;-50
2022/07/14 10:17:40;;;;;;;7.75;1.63;;;;;;;24.05;47.98;101981.75;5009810;28;20141;-52
2022/07/14 10:20:08;;;;;;;13.57;2.20;;;;;;;24.00;48.37;101981.59;5013657;28;20108;-52
2022/07/14 10:22:35;;;;;;;6.70;1.48;;;;;;;23.95;45.26;101982.25;5014985;28;20112;-53
2022/07/14 10:25:02;;;;;;;9.70;1.70;;;;;;;24.27;47.91;101981.34;4997288;28;20491;-51
2022/07/14 10:27:29;;;;;;;7.18;1.55;;;;;;;24.28;46.54;101981.09;5001440;28;20511;-53
2022/07/14 10:29:56;;;;;;;6.80;1.50;;;;;;;24.49;47.77;101985.31;5012315;28;20349;-51
2022/07/14 10:32:39;;;;;;;9.63;1.73;;;;;;;24.43;46.73;101985.38;5004790;28;20057;-51
2022/07/14 10:35:18;;;;;;;7.20;1.50;;;;;;;24.52;46.28;101984.84;5014091;28;20041;-52
2022/07/14 10:38:15;;;;;;;9.02;1.90;;;;;;;24.97;48.54;101975.53;4998829;28;20034;-55
2022/07/14 10:40:55;;;;;;;9.00;1.88;;;;;;;25.27;46.79;101970.13;4999407;28;20053;-55
2022/07/14 10:43:27;;;;;;;7.90;1.73;;;;;;;25.36;43.60;101967.03;5009078;28;20133;-54
2022/07/14 10:45:54;;;;;;;9.70;1.70;;;;;;;25.25;44.39;101968.63;5017176;28;20051;-54
2022/07/14 10:48:31;;;;;;;11.07;1.95;;;;;;;25.38;44.09;101965.75;5016175;28;20036;-54
2022/07/14 10:51:21;;;;;;;7.07;1.27;;;;;;;25.34;42.30;101966.44;5011952;28;20053;-55
2022/07/14 10:54:13;;;;;;;5.28;1.33;;;;;;;25.35;43.74;101970.84;5017349;28;20017;-55
2022/07/14 10:56:40;;;;;;;5.75;1.33;;;;;;;25.24;42.45;101967.81;5015967;28;20032;-54
2022/07/14 10:59:28;;;;;;;6.53;1.52;;;;;;;25.56;45.07;101970.31;5015428;28;20025;-53
2022/07/14 11:02:14;;;;;;;5.97;1.23;;;;;;;25.43;43.37;101973.25;4991477;28;20609;-53
2022/07/14 11:07:51;;;;;;;5.75;1.48;;;;;;;25.46;42.77;101970.06;5017566;28;20521;-54
2022/07/14 11:10:20;;;;;;;8.23;1.85;;;;;;;25.44;42.16;101966.69;5013498;28;20028;-52
2022/07/14 11:13:06;;;;;;;6.97;1.70;;;;;;;25.03;43.44;101969.13;4999170;28;20026;-52
2022/07/14 11:15:45;;;;;;;10.10;2.10;;;;;;;24.83;45.19;101972.16;5008230;28;20034;-50
2022/07/14 11:18:26;;;;;;;9.70;1.88;;;;;;;24.84;44.56;101979.25;4989689;28;20469;-50
2022/07/14 11:21:18;;;;;;;7.93;1.80;;;;;;;25.21;44.73;101976.47;4987245;28;20628;-50
2022/07/14 11:23:49;;;;;;;9.57;1.80;;;;;;;25.66;41.72;101967.84;5013651;28;20522;-52